sensor_id;sensor_type;location;lat;lon;timestamp;P1;durP1;ratioP1;P2;durP2;ratioP2
30553;SDS011;17335;50.720;7.452;2024-03-08T00:00:09;27.80;;;13.23;;
30553;SDS011;17335;50.720;7.452;2024-03-08T00:02:41;29.35;;;11.45;;
30553;SDS011;17335;50.720;7.452;2024-03-08T00:05:08;29.38;;;12.02;;
30553;SDS011;17335;50.720;7.452;2024-03-08T00:07:35;26.13;;;12.05;;
30553;SDS011;17335;50.720;7.452;2024-03-08T00:10:03;35.75;;;14.10;;
30553;SDS011;17335;50.720;7.452;2024-03-08T00:12:30;29.23;;;12.50;;
30553;SDS011;17335;50.720;7.452;2024-03-08T00:14:57;26.48;;;12.23;;
30553;SDS011;17335;50.720;7.452;2024-03-08T00:17:23;27.95;;;12.45;;
30553;SDS011;17335;50.720;7.452;2024-03-08T00:19:50;32.05;;;12.90;;
30553;SDS011;17335;50.720;7.452;2024-03-08T00:22:17;32.08;;;12.50;;
30553;SDS011;17335;50.720;7.452;2024-03-08T00:24:43;31.27;;;12.48;;
30553;SDS011;17335;50.720;7.452;2024-03-08T00:27:10;32.67;;;12.20;;
30553;SDS011;17335;50.720;7.452;2024-03-08T00:29:37;27.75;;;12.73;;
30553;SDS011;17335;50.720;7.452;2024-03-08T00:32:05;33.53;;;12.77;;
30553;SDS011;17335;50.720;7.452;2024-03-08T00:34:31;28.52;;;12.68;;
30553;SDS011;17335;50.720;7.452;2024-03-08T00:36:58;29.33;;;12.75;;
30553;SDS011;17335;50.720;7.452;2024-03-08T00:39:25;32.47;;;12.40;;
30553;SDS011;17335;50.720;7.452;2024-03-08T00:41:51;29.92;;;13.48;;
30553;SDS011;17335;50.720;7.452;2024-03-08T00:44:18;29.73;;;11.65;;
30553;SDS011;17335;50.720;7.452;2024-03-08T00:46:44;30.63;;;12.50;;
30553;SDS011;17335;50.720;7.452;2024-03-08T00:49:11;27.75;;;12.25;;
30553;SDS011;17335;50.720;7.452;2024-03-08T00:51:38;33.78;;;13.02;;
30553;SDS011;17335;50.720;7.452;2024-03-08T00:54:05;33.70;;;12.75;;
30553;SDS011;17335;50.720;7.452;2024-03-08T00:56:31;29.58;;;12.25;;
30553;SDS011;17335;50.720;7.452;2024-03-08T00:59:00;31.00;;;12.88;;
30553;SDS011;17335;50.720;7.452;2024-03-08T01:01:26;27.70;;;12.25;;
30553;SDS011;17335;50.720;7.452;2024-03-08T01:03:52;30.83;;;12.07;;
30553;SDS011;17335;50.720;7.452;2024-03-08T01:06:19;32.45;;;12.77;;
30553;SDS011;17335;50.720;7.452;2024-03-08T01:08:46;25.85;;;12.13;;
30553;SDS011;17335;50.720;7.452;2024-03-08T01:11:13;32.17;;;12.63;;
30553;SDS011;17335;50.720;7.452;2024-03-08T01:13:40;31.55;;;12.38;;
30553;SDS011;17335;50.720;7.452;2024-03-08T01:16:07;27.83;;;12.32;;
30553;SDS011;17335;50.720;7.452;2024-03-08T01:18:33;33.35;;;12.55;;
30553;SDS011;17335;50.720;7.452;2024-03-08T01:21:00;31.88;;;12.50;;
30553;SDS011;17335;50.720;7.452;2024-03-08T01:23:26;31.17;;;12.77;;
30553;SDS011;17335;50.720;7.452;2024-03-08T01:25:53;32.75;;;13.45;;
30553;SDS011;17335;50.720;7.452;2024-03-08T01:28:26;31.92;;;12.20;;
30553;SDS011;17335;50.720;7.452;2024-03-08T01:30:52;28.33;;;11.85;;
30553;SDS011;17335;50.720;7.452;2024-03-08T01:33:22;25.95;;;12.50;;
30553;SDS011;17335;50.720;7.452;2024-03-08T01:35:52;29.70;;;12.90;;
30553;SDS011;17335;50.720;7.452;2024-03-08T01:38:21;28.92;;;11.88;;
30553;SDS011;17335;50.720;7.452;2024-03-08T01:40:47;29.25;;;12.68;;
30553;SDS011;17335;50.720;7.452;2024-03-08T01:43:16;31.25;;;12.35;;
30553;SDS011;17335;50.720;7.452;2024-03-08T01:45:44;36.47;;;12.73;;
30553;SDS011;17335;50.720;7.452;2024-03-08T01:48:10;28.13;;;12.32;;
30553;SDS011;17335;50.720;7.452;2024-03-08T01:50:38;30.05;;;12.77;;
30553;SDS011;17335;50.720;7.452;2024-03-08T01:53:05;36.28;;;12.55;;
30553;SDS011;17335;50.720;7.452;2024-03-08T01:55:33;29.67;;;12.50;;
30553;SDS011;17335;50.720;7.452;2024-03-08T01:58:03;28.25;;;12.73;;
30553;SDS011;17335;50.720;7.452;2024-03-08T02:00:33;35.25;;;13.25;;
30553;SDS011;17335;50.720;7.452;2024-03-08T02:03:01;25.95;;;11.90;;
30553;SDS011;17335;50.720;7.452;2024-03-08T02:05:27;30.75;;;12.68;;
30553;SDS011;17335;50.720;7.452;2024-03-08T02:07:54;27.60;;;11.38;;
30553;SDS011;17335;50.720;7.452;2024-03-08T02:10:21;29.30;;;12.73;;
30553;SDS011;17335;50.720;7.452;2024-03-08T02:12:48;32.05;;;13.65;;
30553;SDS011;17335;50.720;7.452;2024-03-08T02:15:15;32.92;;;12.48;;
30553;SDS011;17335;50.720;7.452;2024-03-08T02:17:41;28.02;;;12.63;;
30553;SDS011;17335;50.720;7.452;2024-03-08T02:20:08;25.25;;;12.35;;
30553;SDS011;17335;50.720;7.452;2024-03-08T02:22:36;31.05;;;12.82;;
30553;SDS011;17335;50.720;7.452;2024-03-08T02:25:03;29.83;;;13.65;;
30553;SDS011;17335;50.720;7.452;2024-03-08T02:31:18;26.45;;;12.68;;
30553;SDS011;17335;50.720;7.452;2024-03-08T02:33:45;31.00;;;12.07;;
30553;SDS011;17335;50.720;7.452;2024-03-08T02:36:14;32.03;;;12.88;;
30553;SDS011;17335;50.720;7.452;2024-03-08T02:38:40;27.50;;;12.07;;
30553;SDS011;17335;50.720;7.452;2024-03-08T02:41:07;29.27;;;12.25;;
30553;SDS011;17335;50.720;7.452;2024-03-08T02:43:34;26.67;;;11.52;;
30553;SDS011;17335;50.720;7.452;2024-03-08T02:46:01;30.98;;;13.65;;
30553;SDS011;17335;50.720;7.452;2024-03-08T02:48:27;27.25;;;11.70;;
30553;SDS011;17335;50.720;7.452;2024-03-08T02:50:54;30.15;;;13.05;;
30553;SDS011;17335;50.720;7.452;2024-03-08T02:53:20;29.23;;;12.63;;
30553;SDS011;17335;50.720;7.452;2024-03-08T02:55:48;28.55;;;12.52;;
30553;SDS011;17335;50.720;7.452;2024-03-08T02:58:14;28.98;;;12.48;;
30553;SDS011;17335;50.720;7.452;2024-03-08T03:00:41;31.35;;;11.88;;
30553;SDS011;17335;50.720;7.452;2024-03-08T03:03:08;23.85;;;11.55;;
30553;SDS011;17335;50.720;7.452;2024-03-08T03:05:35;28.90;;;12.82;;
30553;SDS011;17335;50.720;7.452;2024-03-08T03:08:01;26.48;;;12.07;;
30553;SDS011;17335;50.720;7.452;2024-03-08T03:10:30;29.75;;;13.45;;
30553;SDS011;17335;50.720;7.452;2024-03-08T03:12:57;35.47;;;12.75;;
30553;SDS011;17335;50.720;7.452;2024-03-08T03:15:24;30.38;;;12.38;;
30553;SDS011;17335;50.720;7.452;2024-03-08T03:17:53;28.23;;;12.70;;
30553;SDS011;17335;50.720;7.452;2024-03-08T03:20:20;28.15;;;12.10;;
30553;SDS011;17335;50.720;7.452;2024-03-08T03:22:53;27.50;;;12.02;;
30553;SDS011;17335;50.720;7.452;2024-03-08T03:25:19;31.05;;;13.38;;
30553;SDS011;17335;50.720;7.452;2024-03-08T03:27:55;26.38;;;11.32;;
30553;SDS011;17335;50.720;7.452;2024-03-08T03:30:24;38.22;;;12.23;;
30553;SDS011;17335;50.720;7.452;2024-03-08T03:32:53;30.42;;;12.48;;
30553;SDS011;17335;50.720;7.452;2024-03-08T03:35:21;36.90;;;13.48;;
30553;SDS011;17335;50.720;7.452;2024-03-08T03:37:48;32.08;;;13.57;;
30553;SDS011;17335;50.720;7.452;2024-03-08T03:40:28;26.65;;;12.05;;
30553;SDS011;17335;50.720;7.452;2024-03-08T03:42:55;27.75;;;12.20;;
30553;SDS011;17335;50.720;7.452;2024-03-08T03:45:25;30.45;;;12.60;;
30553;SDS011;17335;50.720;7.452;2024-03-08T03:47:52;27.27;;;11.68;;
30553;SDS011;17335;50.720;7.452;2024-03-08T03:50:19;33.10;;;12.63;;
30553;SDS011;17335;50.720;7.452;2024-03-08T03:52:46;33.88;;;12.18;;
30553;SDS011;17335;50.720;7.452;2024-03-08T03:55:14;29.23;;;11.57;;
30553;SDS011;17335;50.720;7.452;2024-03-08T03:57:41;30.50;;;12.10;;
30553;SDS011;17335;50.720;7.452;2024-03-08T04:00:07;26.63;;;12.18;;
30553;SDS011;17335;50.720;7.452;2024-03-08T04:02:39;36.40;;;14.18;;
30553;SDS011;17335;50.720;7.452;2024-03-08T04:05:07;28.75;;;11.93;;
30553;SDS011;17335;50.720;7.452;2024-03-08T04:07:36;37.75;;;13.95;;
30553;SDS011;17335;50.720;7.452;2024-03-08T04:10:04;31.25;;;13.10;;
30553;SDS011;17335;50.720;7.452;2024-03-08T04:12:35;31.40;;;13.60;;
30553;SDS011;17335;50.720;7.452;2024-03-08T04:15:02;33.17;;;13.55;;
30553;SDS011;17335;50.720;7.452;2024-03-08T04:17:28;34.33;;;15.32;;
30553;SDS011;17335;50.720;7.452;2024-03-08T04:19:55;37.50;;;13.60;;
30553;SDS011;17335;50.720;7.452;2024-03-08T04:22:21;31.45;;;13.40;;
30553;SDS011;17335;50.720;7.452;2024-03-08T04:24:48;33.13;;;12.82;;
30553;SDS011;17335;50.720;7.452;2024-03-08T04:27:15;32.83;;;12.02;;
30553;SDS011;17335;50.720;7.452;2024-03-08T04:29:41;29.40;;;12.88;;
30553;SDS011;17335;50.720;7.452;2024-03-08T04:32:09;38.60;;;13.52;;
30553;SDS011;17335;50.720;7.452;2024-03-08T04:34:35;36.67;;;13.10;;
30553;SDS011;17335;50.720;7.452;2024-03-08T04:37:02;35.33;;;13.02;;
30553;SDS011;17335;50.720;7.452;2024-03-08T04:39:31;29.63;;;13.50;;
30553;SDS011;17335;50.720;7.452;2024-03-08T04:41:58;29.30;;;12.77;;
30553;SDS011;17335;50.720;7.452;2024-03-08T04:44:31;33.65;;;12.98;;
30553;SDS011;17335;50.720;7.452;2024-03-08T04:46:58;30.42;;;11.90;;
30553;SDS011;17335;50.720;7.452;2024-03-08T04:49:24;32.20;;;13.18;;
30553;SDS011;17335;50.720;7.452;2024-03-08T04:51:51;31.77;;;12.65;;
30553;SDS011;17335;50.720;7.452;2024-03-08T04:54:17;35.65;;;14.20;;
30553;SDS011;17335;50.720;7.452;2024-03-08T04:56:44;36.30;;;13.27;;
30553;SDS011;17335;50.720;7.452;2024-03-08T04:59:10;30.63;;;12.90;;
30553;SDS011;17335;50.720;7.452;2024-03-08T05:01:36;33.35;;;14.27;;
30553;SDS011;17335;50.720;7.452;2024-03-08T05:04:04;34.88;;;13.93;;
30553;SDS011;17335;50.720;7.452;2024-03-08T05:06:35;34.08;;;12.95;;
30553;SDS011;17335;50.720;7.452;2024-03-08T05:09:02;32.55;;;12.45;;
30553;SDS011;17335;50.720;7.452;2024-03-08T05:11:42;33.88;;;13.90;;
30553;SDS011;17335;50.720;7.452;2024-03-08T05:14:13;29.95;;;12.90;;
30553;SDS011;17335;50.720;7.452;2024-03-08T05:16:46;33.40;;;12.32;;
30553;SDS011;17335;50.720;7.452;2024-03-08T05:19:15;35.45;;;13.35;;
30553;SDS011;17335;50.720;7.452;2024-03-08T05:21:46;32.30;;;13.27;;
30553;SDS011;17335;50.720;7.452;2024-03-08T05:24:14;31.42;;;13.10;;
30553;SDS011;17335;50.720;7.452;2024-03-08T05:26:42;33.85;;;13.15;;
30553;SDS011;17335;50.720;7.452;2024-03-08T05:29:09;33.13;;;13.05;;
30553;SDS011;17335;50.720;7.452;2024-03-08T05:31:37;37.97;;;13.98;;
30553;SDS011;17335;50.720;7.452;2024-03-08T05:34:09;36.60;;;13.35;;
30553;SDS011;17335;50.720;7.452;2024-03-08T05:36:36;33.08;;;12.20;;
30553;SDS011;17335;50.720;7.452;2024-03-08T05:39:03;30.02;;;14.15;;
30553;SDS011;17335;50.720;7.452;2024-03-08T05:41:32;34.58;;;12.45;;
30553;SDS011;17335;50.720;7.452;2024-03-08T05:43:58;31.52;;;13.43;;
30553;SDS011;17335;50.720;7.452;2024-03-08T05:46:25;34.65;;;13.57;;
30553;SDS011;17335;50.720;7.452;2024-03-08T05:48:51;33.03;;;13.63;;
30553;SDS011;17335;50.720;7.452;2024-03-08T05:51:19;37.58;;;14.77;;
30553;SDS011;17335;50.720;7.452;2024-03-08T05:53:47;37.13;;;14.27;;
30553;SDS011;17335;50.720;7.452;2024-03-08T05:56:13;35.92;;;13.50;;
30553;SDS011;17335;50.720;7.452;2024-03-08T05:58:40;48.80;;;13.70;;
30553;SDS011;17335;50.720;7.452;2024-03-08T06:01:06;29.80;;;12.68;;
30553;SDS011;17335;50.720;7.452;2024-03-08T06:03:34;32.80;;;14.05;;
30553;SDS011;17335;50.720;7.452;2024-03-08T06:06:00;36.75;;;13.38;;
30553;SDS011;17335;50.720;7.452;2024-03-08T06:08:27;31.70;;;12.52;;
30553;SDS011;17335;50.720;7.452;2024-03-08T06:10:56;33.55;;;14.77;;
30553;SDS011;17335;50.720;7.452;2024-03-08T06:13:22;35.30;;;13.90;;
30553;SDS011;17335;50.720;7.452;2024-03-08T06:15:51;29.95;;;13.60;;
30553;SDS011;17335;50.720;7.452;2024-03-08T06:18:17;37.03;;;13.80;;
30553;SDS011;17335;50.720;7.452;2024-03-08T06:20:44;35.25;;;13.70;;
30553;SDS011;17335;50.720;7.452;2024-03-08T06:23:12;32.10;;;13.10;;
30553;SDS011;17335;50.720;7.452;2024-03-08T06:25:38;36.67;;;12.80;;
30553;SDS011;17335;50.720;7.452;2024-03-08T06:28:05;32.78;;;12.85;;
30553;SDS011;17335;50.720;7.452;2024-03-08T06:30:31;40.20;;;15.20;;
30553;SDS011;17335;50.720;7.452;2024-03-08T06:32:58;33.83;;;14.45;;
30553;SDS011;17335;50.720;7.452;2024-03-08T06:35:25;31.25;;;12.85;;
30553;SDS011;17335;50.720;7.452;2024-03-08T06:37:51;36.50;;;14.35;;
30553;SDS011;17335;50.720;7.452;2024-03-08T06:40:18;31.80;;;14.00;;
30553;SDS011;17335;50.720;7.452;2024-03-08T06:42:44;32.78;;;12.80;;
30553;SDS011;17335;50.720;7.452;2024-03-08T06:45:11;33.15;;;12.40;;
30553;SDS011;17335;50.720;7.452;2024-03-08T06:47:39;39.42;;;13.73;;
30553;SDS011;17335;50.720;7.452;2024-03-08T06:50:08;35.85;;;14.35;;
30553;SDS011;17335;50.720;7.452;2024-03-08T06:52:34;36.40;;;13.73;;
30553;SDS011;17335;50.720;7.452;2024-03-08T06:55:01;35.38;;;13.65;;
30553;SDS011;17335;50.720;7.452;2024-03-08T06:57:28;32.20;;;13.98;;
30553;SDS011;17335;50.720;7.452;2024-03-08T06:59:55;33.42;;;12.70;;
30553;SDS011;17335;50.720;7.452;2024-03-08T07:02:23;33.10;;;14.35;;
30553;SDS011;17335;50.720;7.452;2024-03-08T07:04:52;37.78;;;14.43;;
30553;SDS011;17335;50.720;7.452;2024-03-08T07:07:19;29.20;;;13.25;;
30553;SDS011;17335;50.720;7.452;2024-03-08T07:09:48;35.40;;;14.10;;
30553;SDS011;17335;50.720;7.452;2024-03-08T07:12:15;38.97;;;14.82;;
30553;SDS011;17335;50.720;7.452;2024-03-08T07:14:42;34.60;;;12.63;;
30553;SDS011;17335;50.720;7.452;2024-03-08T07:17:11;37.25;;;14.65;;
30553;SDS011;17335;50.720;7.452;2024-03-08T07:19:38;35.63;;;13.80;;
30553;SDS011;17335;50.720;7.452;2024-03-08T07:22:05;30.27;;;13.45;;
30553;SDS011;17335;50.720;7.452;2024-03-08T07:24:35;34.20;;;14.18;;
30553;SDS011;17335;50.720;7.452;2024-03-08T07:27:04;36.53;;;14.13;;
30553;SDS011;17335;50.720;7.452;2024-03-08T07:29:32;32.80;;;13.75;;
30553;SDS011;17335;50.720;7.452;2024-03-08T07:32:00;37.42;;;14.40;;
30553;SDS011;17335;50.720;7.452;2024-03-08T07:34:26;36.88;;;13.52;;
30553;SDS011;17335;50.720;7.452;2024-03-08T07:36:53;33.88;;;13.38;;
30553;SDS011;17335;50.720;7.452;2024-03-08T07:39:20;35.95;;;13.10;;
30553;SDS011;17335;50.720;7.452;2024-03-08T07:41:47;36.25;;;13.48;;
30553;SDS011;17335;50.720;7.452;2024-03-08T07:44:14;31.08;;;13.23;;
30553;SDS011;17335;50.720;7.452;2024-03-08T07:46:40;28.63;;;12.48;;
30553;SDS011;17335;50.720;7.452;2024-03-08T07:49:08;35.38;;;13.77;;
30553;SDS011;17335;50.720;7.452;2024-03-08T07:51:37;32.10;;;13.60;;
30553;SDS011;17335;50.720;7.452;2024-03-08T07:54:04;31.80;;;13.45;;
30553;SDS011;17335;50.720;7.452;2024-03-08T07:56:31;31.77;;;13.48;;
30553;SDS011;17335;50.720;7.452;2024-03-08T07:58:57;28.73;;;13.30;;
30553;SDS011;17335;50.720;7.452;2024-03-08T08:01:24;30.77;;;11.73;;
30553;SDS011;17335;50.720;7.452;2024-03-08T08:03:51;30.17;;;11.48;;
30553;SDS011;17335;50.720;7.452;2024-03-08T08:06:17;32.90;;;12.00;;
30553;SDS011;17335;50.720;7.452;2024-03-08T08:08:44;31.98;;;13.18;;
30553;SDS011;17335;50.720;7.452;2024-03-08T08:11:11;31.05;;;12.98;;
30553;SDS011;17335;50.720;7.452;2024-03-08T08:13:37;32.55;;;12.45;;
30553;SDS011;17335;50.720;7.452;2024-03-08T08:16:05;30.95;;;13.95;;
30553;SDS011;17335;50.720;7.452;2024-03-08T08:18:34;27.42;;;12.32;;
30553;SDS011;17335;50.720;7.452;2024-03-08T08:21:04;34.38;;;13.30;;
30553;SDS011;17335;50.720;7.452;2024-03-08T08:23:32;32.88;;;12.63;;
30553;SDS011;17335;50.720;7.452;2024-03-08T08:25:59;34.22;;;11.75;;
30553;SDS011;17335;50.720;7.452;2024-03-08T08:28:25;30.50;;;12.68;;
30553;SDS011;17335;50.720;7.452;2024-03-08T08:30:52;28.60;;;11.50;;
30553;SDS011;17335;50.720;7.452;2024-03-08T08:33:18;27.23;;;12.00;;
30553;SDS011;17335;50.720;7.452;2024-03-08T08:35:45;29.98;;;12.05;;
30553;SDS011;17335;50.720;7.452;2024-03-08T08:38:14;23.98;;;11.30;;
30553;SDS011;17335;50.720;7.452;2024-03-08T08:40:40;28.45;;;11.57;;
30553;SDS011;17335;50.720;7.452;2024-03-08T08:43:07;31.33;;;12.13;;
30553;SDS011;17335;50.720;7.452;2024-03-08T08:45:34;27.80;;;11.10;;
30553;SDS011;17335;50.720;7.452;2024-03-08T08:48:00;26.00;;;10.88;;
30553;SDS011;17335;50.720;7.452;2024-03-08T08:50:27;26.00;;;10.73;;
30553;SDS011;17335;50.720;7.452;2024-03-08T08:52:54;26.83;;;11.93;;
30553;SDS011;17335;50.720;7.452;2024-03-08T08:55:21;25.90;;;11.43;;
30553;SDS011;17335;50.720;7.452;2024-03-08T08:57:52;29.13;;;11.25;;
30553;SDS011;17335;50.720;7.452;2024-03-08T09:00:19;23.05;;;11.00;;
30553;SDS011;17335;50.720;7.452;2024-03-08T09:02:46;23.42;;;10.60;;
30553;SDS011;17335;50.720;7.452;2024-03-08T09:05:14;21.80;;;11.15;;
30553;SDS011;17335;50.720;7.452;2024-03-08T09:07:45;23.20;;;10.60;;
30553;SDS011;17335;50.720;7.452;2024-03-08T09:10:12;20.52;;;9.75;;
30553;SDS011;17335;50.720;7.452;2024-03-08T09:12:43;26.17;;;10.77;;
30553;SDS011;17335;50.720;7.452;2024-03-08T09:15:10;19.65;;;9.32;;
30553;SDS011;17335;50.720;7.452;2024-03-08T09:17:39;21.73;;;9.80;;
30553;SDS011;17335;50.720;7.452;2024-03-08T09:20:08;22.27;;;10.32;;
30553;SDS011;17335;50.720;7.452;2024-03-08T09:22:35;22.13;;;9.98;;
30553;SDS011;17335;50.720;7.452;2024-03-08T09:25:01;20.15;;;9.85;;
30553;SDS011;17335;50.720;7.452;2024-03-08T09:27:31;20.77;;;9.07;;
30553;SDS011;17335;50.720;7.452;2024-03-08T09:29:57;25.30;;;9.73;;
30553;SDS011;17335;50.720;7.452;2024-03-08T09:32:24;23.92;;;10.13;;
30553;SDS011;17335;50.720;7.452;2024-03-08T09:34:50;20.35;;;9.85;;
30553;SDS011;17335;50.720;7.452;2024-03-08T09:37:16;20.13;;;9.35;;
30553;SDS011;17335;50.720;7.452;2024-03-08T09:39:43;20.85;;;9.65;;
30553;SDS011;17335;50.720;7.452;2024-03-08T09:42:10;25.70;;;9.77;;
30553;SDS011;17335;50.720;7.452;2024-03-08T09:44:44;22.90;;;9.65;;
30553;SDS011;17335;50.720;7.452;2024-03-08T09:47:15;25.67;;;10.13;;
30553;SDS011;17335;50.720;7.452;2024-03-08T09:49:42;20.65;;;8.98;;
30553;SDS011;17335;50.720;7.452;2024-03-08T09:52:09;20.08;;;8.88;;
30553;SDS011;17335;50.720;7.452;2024-03-08T09:54:36;22.25;;;8.95;;
30553;SDS011;17335;50.720;7.452;2024-03-08T09:57:06;27.02;;;9.23;;
30553;SDS011;17335;50.720;7.452;2024-03-08T09:59:35;22.35;;;9.52;;
30553;SDS011;17335;50.720;7.452;2024-03-08T10:02:04;22.90;;;9.32;;
30553;SDS011;17335;50.720;7.452;2024-03-08T10:04:32;22.15;;;8.93;;
30553;SDS011;17335;50.720;7.452;2024-03-08T10:07:00;22.02;;;10.70;;
30553;SDS011;17335;50.720;7.452;2024-03-08T10:09:27;23.95;;;9.15;;
30553;SDS011;17335;50.720;7.452;2024-03-08T10:11:57;20.55;;;9.95;;
30553;SDS011;17335;50.720;7.452;2024-03-08T10:14:24;22.73;;;9.45;;
30553;SDS011;17335;50.720;7.452;2024-03-08T10:16:52;19.77;;;8.85;;
30553;SDS011;17335;50.720;7.452;2024-03-08T10:19:19;26.48;;;10.10;;
30553;SDS011;17335;50.720;7.452;2024-03-08T10:21:49;21.38;;;9.82;;
30553;SDS011;17335;50.720;7.452;2024-03-08T10:24:19;18.33;;;8.93;;
30553;SDS011;17335;50.720;7.452;2024-03-08T10:26:46;20.75;;;9.52;;
30553;SDS011;17335;50.720;7.452;2024-03-08T10:29:12;20.92;;;9.32;;
30553;SDS011;17335;50.720;7.452;2024-03-08T10:31:45;21.50;;;9.70;;
30553;SDS011;17335;50.720;7.452;2024-03-08T10:34:11;19.58;;;10.18;;
30553;SDS011;17335;50.720;7.452;2024-03-08T10:36:39;21.80;;;9.93;;
30553;SDS011;17335;50.720;7.452;2024-03-08T10:39:22;20.35;;;10.27;;
30553;SDS011;17335;50.720;7.452;2024-03-08T10:41:56;23.73;;;10.23;;
30553;SDS011;17335;50.720;7.452;2024-03-08T10:44:30;22.13;;;8.98;;
30553;SDS011;17335;50.720;7.452;2024-03-08T10:47:11;21.05;;;9.43;;
30553;SDS011;17335;50.720;7.452;2024-03-08T10:49:54;20.35;;;9.57;;
30553;SDS011;17335;50.720;7.452;2024-03-08T10:52:21;24.48;;;9.27;;
30553;SDS011;17335;50.720;7.452;2024-03-08T10:54:49;19.58;;;9.30;;
30553;SDS011;17335;50.720;7.452;2024-03-08T10:57:17;18.50;;;9.40;;
30553;SDS011;17335;50.720;7.452;2024-03-08T10:59:47;18.30;;;9.25;;
30553;SDS011;17335;50.720;7.452;2024-03-08T11:02:16;22.30;;;9.77;;
30553;SDS011;17335;50.720;7.452;2024-03-08T11:04:48;18.88;;;8.93;;
30553;SDS011;17335;50.720;7.452;2024-03-08T11:07:16;18.20;;;8.73;;
30553;SDS011;17335;50.720;7.452;2024-03-08T11:09:49;22.45;;;10.30;;
30553;SDS011;17335;50.720;7.452;2024-03-08T11:14:47;18.25;;;9.60;;
30553;SDS011;17335;50.720;7.452;2024-03-08T11:18:01;19.85;;;9.55;;
30553;SDS011;17335;50.720;7.452;2024-03-08T11:20:15;19.73;;;8.63;;
30553;SDS011;17335;50.720;7.452;2024-03-08T11:22:53;20.40;;;8.45;;
30553;SDS011;17335;50.720;7.452;2024-03-08T11:28:13;20.55;;;8.73;;
30553;SDS011;17335;50.720;7.452;2024-03-08T11:30:46;19.92;;;8.73;;
30553;SDS011;17335;50.720;7.452;2024-03-08T11:33:34;20.30;;;9.10;;
30553;SDS011;17335;50.720;7.452;2024-03-08T11:38:42;21.02;;;8.38;;
30553;SDS011;17335;50.720;7.452;2024-03-08T11:41:19;16.88;;;7.80;;
30553;SDS011;17335;50.720;7.452;2024-03-08T11:43:47;20.10;;;8.60;;
30553;SDS011;17335;50.720;7.452;2024-03-08T11:46:14;17.83;;;7.82;;
30553;SDS011;17335;50.720;7.452;2024-03-08T11:48:43;18.92;;;7.50;;
30553;SDS011;17335;50.720;7.452;2024-03-08T11:51:10;19.10;;;7.75;;
30553;SDS011;17335;50.720;7.452;2024-03-08T11:53:38;17.15;;;7.65;;
30553;SDS011;17335;50.720;7.452;2024-03-08T11:56:08;14.82;;;6.90;;
30553;SDS011;17335;50.720;7.452;2024-03-08T11:58:39;18.92;;;7.47;;
30553;SDS011;17335;50.720;7.452;2024-03-08T12:01:07;16.92;;;8.00;;
30553;SDS011;17335;50.720;7.452;2024-03-08T12:03:41;18.88;;;8.27;;
30553;SDS011;17335;50.720;7.452;2024-03-08T12:06:11;16.98;;;7.45;;
30553;SDS011;17335;50.720;7.452;2024-03-08T12:08:39;19.50;;;7.63;;
30553;SDS011;17335;50.720;7.452;2024-03-08T12:11:06;18.17;;;8.07;;
30553;SDS011;17335;50.720;7.452;2024-03-08T12:13:33;20.75;;;8.35;;
30553;SDS011;17335;50.720;7.452;2024-03-08T12:16:04;19.42;;;8.68;;
30553;SDS011;17335;50.720;7.452;2024-03-08T12:18:35;16.27;;;6.80;;
30553;SDS011;17335;50.720;7.452;2024-03-08T12:21:13;17.38;;;7.75;;
30553;SDS011;17335;50.720;7.452;2024-03-08T12:23:44;17.77;;;7.50;;
30553;SDS011;17335;50.720;7.452;2024-03-08T12:28:42;18.25;;;7.90;;
30553;SDS011;17335;50.720;7.452;2024-03-08T12:31:14;17.65;;;7.45;;
30553;SDS011;17335;50.720;7.452;2024-03-08T12:33:50;17.88;;;7.30;;
30553;SDS011;17335;50.720;7.452;2024-03-08T12:36:22;15.73;;;6.65;;
30553;SDS011;17335;50.720;7.452;2024-03-08T12:38:48;13.63;;;6.80;;
30553;SDS011;17335;50.720;7.452;2024-03-08T12:41:15;16.15;;;7.30;;
30553;SDS011;17335;50.720;7.452;2024-03-08T12:43:43;17.17;;;7.22;;
30553;SDS011;17335;50.720;7.452;2024-03-08T12:46:18;14.85;;;6.75;;
30553;SDS011;17335;50.720;7.452;2024-03-08T12:48:52;19.15;;;7.40;;
30553;SDS011;17335;50.720;7.452;2024-03-08T12:51:20;16.27;;;7.22;;
30553;SDS011;17335;50.720;7.452;2024-03-08T12:53:47;15.82;;;7.28;;
30553;SDS011;17335;50.720;7.452;2024-03-08T12:56:21;15.07;;;6.88;;
30553;SDS011;17335;50.720;7.452;2024-03-08T12:58:56;16.02;;;7.13;;
30553;SDS011;17335;50.720;7.452;2024-03-08T13:01:23;15.45;;;6.93;;
30553;SDS011;17335;50.720;7.452;2024-03-08T13:03:50;14.32;;;6.75;;
30553;SDS011;17335;50.720;7.452;2024-03-08T13:06:16;16.75;;;6.82;;
30553;SDS011;17335;50.720;7.452;2024-03-08T13:08:43;14.48;;;7.15;;
30553;SDS011;17335;50.720;7.452;2024-03-08T13:11:10;15.10;;;6.90;;
30553;SDS011;17335;50.720;7.452;2024-03-08T13:13:43;16.23;;;6.28;;
30553;SDS011;17335;50.720;7.452;2024-03-08T13:16:10;12.57;;;6.13;;
30553;SDS011;17335;50.720;7.452;2024-03-08T13:18:41;13.55;;;6.40;;
30553;SDS011;17335;50.720;7.452;2024-03-08T13:21:10;13.15;;;6.95;;
30553;SDS011;17335;50.720;7.452;2024-03-08T13:23:40;16.40;;;6.30;;
30553;SDS011;17335;50.720;7.452;2024-03-08T13:26:13;14.88;;;6.90;;
30553;SDS011;17335;50.720;7.452;2024-03-08T13:28:47;16.23;;;6.90;;
30553;SDS011;17335;50.720;7.452;2024-03-08T13:31:22;15.48;;;6.82;;
30553;SDS011;17335;50.720;7.452;2024-03-08T13:33:49;14.52;;;6.68;;
30553;SDS011;17335;50.720;7.452;2024-03-08T13:36:17;16.08;;;7.07;;
30553;SDS011;17335;50.720;7.452;2024-03-08T13:38:47;17.08;;;7.88;;
30553;SDS011;17335;50.720;7.452;2024-03-08T13:41:15;14.70;;;7.47;;
30553;SDS011;17335;50.720;7.452;2024-03-08T13:43:45;21.42;;;7.63;;
30553;SDS011;17335;50.720;7.452;2024-03-08T13:46:13;17.92;;;7.90;;
30553;SDS011;17335;50.720;7.452;2024-03-08T13:48:40;17.40;;;7.72;;
30553;SDS011;17335;50.720;7.452;2024-03-08T13:51:07;14.30;;;6.65;;
30553;SDS011;17335;50.720;7.452;2024-03-08T13:53:36;15.75;;;7.55;;
30553;SDS011;17335;50.720;7.452;2024-03-08T13:56:03;12.10;;;5.97;;
30553;SDS011;17335;50.720;7.452;2024-03-08T13:58:31;16.23;;;6.32;;
30553;SDS011;17335;50.720;7.452;2024-03-08T14:00:57;17.35;;;7.45;;
30553;SDS011;17335;50.720;7.452;2024-03-08T14:03:24;16.60;;;7.03;;
30553;SDS011;17335;50.720;7.452;2024-03-08T14:05:51;13.98;;;6.45;;
30553;SDS011;17335;50.720;7.452;2024-03-08T14:08:18;13.77;;;6.45;;
30553;SDS011;17335;50.720;7.452;2024-03-08T14:10:44;15.43;;;6.75;;
30553;SDS011;17335;50.720;7.452;2024-03-08T14:13:13;15.30;;;6.53;;
30553;SDS011;17335;50.720;7.452;2024-03-08T14:15:42;15.23;;;6.85;;
30553;SDS011;17335;50.720;7.452;2024-03-08T14:18:08;17.00;;;7.00;;
30553;SDS011;17335;50.720;7.452;2024-03-08T14:20:35;14.35;;;7.10;;
30553;SDS011;17335;50.720;7.452;2024-03-08T14:23:01;15.35;;;7.38;;
30553;SDS011;17335;50.720;7.452;2024-03-08T14:25:28;15.20;;;6.95;;
30553;SDS011;17335;50.720;7.452;2024-03-08T14:27:56;15.98;;;6.35;;
30553;SDS011;17335;50.720;7.452;2024-03-08T14:30:30;13.82;;;6.22;;
30553;SDS011;17335;50.720;7.452;2024-03-08T14:33:01;17.75;;;7.47;;
30553;SDS011;17335;50.720;7.452;2024-03-08T14:35:29;14.30;;;6.40;;
30553;SDS011;17335;50.720;7.452;2024-03-08T14:37:55;16.90;;;7.35;;
30553;SDS011;17335;50.720;7.452;2024-03-08T14:40:27;15.07;;;7.03;;
30553;SDS011;17335;50.720;7.452;2024-03-08T14:42:53;18.13;;;6.78;;
30553;SDS011;17335;50.720;7.452;2024-03-08T14:45:20;18.10;;;6.60;;